EST,Max TemperatureF,Mean TemperatureF,Min TemperatureF,Max Dew PointF,MeanDew PointF,Min DewpointF,Max Humidity, Mean Humidity, Min Humidity, Max Sea Level PressureIn, Mean Sea Level PressureIn, Min Sea Level PressureIn, Max VisibilityMiles, Mean VisibilityMiles, Min VisibilityMiles, Max Wind SpeedMPH, Mean Wind SpeedMPH, Max Gust SpeedMPH,PrecipitationIn, CloudCover, Events, WindDirDegrees
2012-1-1,50,40,30,41,33,21,89,78,59,29.96,29.77,29.62,10,10,6,33,19,46,0.04,6,Rain,230
2012-1-2,30,26,19,25,21,12,93,80,60,30.18,29.99,29.92,10,5,0,26,18,34,0.03,8,Fog-Snow,279
2012-1-3,23,18,12,14,11,7,84,72,60,30.33,30.28,30.19,10,10,7,18,12,32,0.00,4,Snow,290
2012-1-4,34,24,14,26,18,9,82,70,59,30.22,30.02,29.91,10,10,10,18,11,23,0.00,1,,220
2012-1-5,42,34,25,31,27,22,92,77,60,30.04,29.94,29.78,10,10,8,17,9,26,0.00,1,,223
2012-1-6,54,46,37,37,33,31,83,66,50,29.79,29.75,29.71,10,10,10,16,12,24,0.00,0,,217
2012-1-7,46,40,33,33,31,26,89,72,56,30.18,29.93,29.70,10,10,10,15,10,,0.00,3,,275
2012-1-8,39,33,27,26,24,22,92,68,49,30.36,30.30,30.20,10,10,10,7,4,,0.00,2,,338
2012-1-9,41,34,27,28,25,22,85,71,53,30.29,30.12,29.98,10,10,10,17,6,,0.00,2,,206
2012-1-10,48,38,28,32,29,25,85,72,52,30.08,29.99,29.91,10,10,6,13,8,,0.00,0,,227
2012-1-11,43,38,33,39,35,28,100,87,65,29.88,29.58,29.41,10,6,2,13,9,,0.15,6,Rain,83
2012-1-12,41,30,18,39,34,11,100,93,74,29.52,29.39,29.33,10,3,0,28,10,37,0.01,8,Fog-Rain-Snow,244
2012-1-13,19,17,15,14,12,10,86,79,73,30.02,29.72,29.49,10,3,0,31,23,43,0.01,8,Fog-Snow,243
2012-1-14,21,18,14,14,13,10,84,78,68,30.25,30.11,30.00,10,6,2,16,12,24,0.00,8,Snow,253
2012-1-15,23,14,6,13,11,5,100,79,63,30.49,30.38,30.24,10,8,5,14,4,,0.00,4,,193
2012-1-16,46,34,21,45,33,14,93,81,67,30.25,29.96,29.81,10,10,7,23,17,32,0.00,6,,187
2012-1-17,55,42,28,50,41,23,100,88,70,30.04,29.71,29.44,10,7,2,41,15,53,1.03,8,Rain-Snow,250
2012-1-18,28,24,19,20,16,12,86,69,58,30.28,30.16,30.04,10,10,8,16,11,24,0.00,7,Snow,271
2012-1-19,30,19,8,27,20,2,93,80,68,30.17,29.89,29.82,10,5,1,24,17,31,0.01,6,Snow,259
2012-1-20,19,11,3,16,9,1,93,81,62,30.31,30.14,30.01,10,5,1,16,7,22,0.08,3,Snow,60
2012-1-21,23,20,17,18,16,13,93,82,72,30.30,30.13,29.95,10,8,2,17,10,22,0.01,6,Snow,35
2012-1-22,39,28,17,36,28,12,100,92,79,30.25,30.02,29.79,10,6,1,18,11,26,0.00,7,,144
2012-1-23,53,44,33,48,38,26,96,84,75,29.91,29.66,29.49,10,8,2,33,20,47,0.19,7,Rain,208
2012-1-24,33,30,28,27,26,24,88,80,73,30.33,30.17,29.91,10,9,1,21,14,28,0.00,7,,256
2012-1-25,32,28,25,30,27,23,100,87,75,30.37,30.27,30.14,7,5,2,7,3,,0.05,7,Rain,116
2012-1-26,35,34,32,36,32,30,100,94,87,30.12,29.79,29.50,6,2,0,10,7,,0.38,8,Fog-Rain,68
2012-1-27,39,36,32,34,32,28,100,89,70,30.01,29.74,29.48,10,5,1,16,10,,0.15,6,Rain-Snow,272
2012-1-28,35,32,30,31,28,18,96,82,52,30.15,29.92,29.82,10,5,0,33,15,43,0.03,6,Fog-Snow,217
2012-1-29,36,30,23,28,24,17,93,77,61,30.26,30.06,29.96,10,7,0,33,19,46,0.00,5,Fog-Snow,253
2012-1-30,45,32,19,32,24,16,89,73,58,30.28,30.13,29.97,10,10,7,23,10,29,0.00,3,,187
2012-1-31,57,48,39,46,37,30,86,65,49,30.01,29.95,29.89,10,10,10,25,17,32,0.00,4,,211